Harbine, Nebraska
Current Conditions -  °F | °C
As of 4:55 AM on Thursday 23 Oct 2014 (Local Time) from KBIE Reporting Station
Scattered Clouds Scattered Clouds  
Wind Chill: 60°   Ceiling: Unl
Heat Index: 60°   Visibility: 10mi
Dew Point: 58°   Wind: 3mph
Humidity: 93%   Direction: 210°SSW
Pressure: 30.04"   Gusts: NA
Location:  40.219°N, 97.0292°W
Report Text: KBIE 230955Z AUTO 21003KT 10SM SCT025 SCT033 16/14 A3004 RMK AO2 T01550143
Loading
Personal Weather Stations






























Interactive Weather Map
Tropical Storm Tracking
New forecast layout! Learn more

10-Day Weather Forecast

Advertisements
Track Severe Weather on mobile